createdAt,value
2023-04-15T00:00:17.893Z,90.15
2023-04-15T00:02:22.248Z,92.19
2023-04-15T00:04:25.722Z,92.08
2023-04-15T00:06:28.532Z,92.80
2023-04-15T00:08:31.654Z,92.48
2023-04-15T00:10:34.400Z,92.68
2023-04-15T00:12:37.097Z,91.09
2023-04-15T00:14:40.069Z,92.16
2023-04-15T00:16:42.885Z,91.38
2023-04-15T00:18:46.974Z,90.41
2023-04-15T00:20:49.613Z,91.47
2023-04-15T00:22:52.290Z,92.10
2023-04-15T00:24:54.948Z,91.06
2023-04-15T00:26:58.011Z,90.75
2023-04-15T00:29:00.865Z,91.96
2023-04-15T00:31:04.392Z,91.65
2023-04-15T00:33:07.984Z,94.31
2023-04-15T00:35:12.187Z,95.06
2023-04-15T00:37:14.891Z,96.11
2023-04-15T00:39:17.518Z,95.38
2023-04-15T00:41:20.940Z,95.22
2023-04-15T00:43:23.566Z,95.85
2023-04-15T00:45:27.440Z,97.65
2023-04-15T00:47:30.959Z,97.91
2023-04-15T00:49:33.669Z,96.13
2023-04-15T00:51:37.925Z,95.77
2023-04-15T00:53:40.585Z,99.11
2023-04-15T00:55:43.652Z,98.04
2023-04-15T00:57:46.467Z,99.76
2023-04-15T00:59:49.800Z,99.21
2023-04-15T01:01:52.744Z,98.69
2023-04-15T01:03:57.709Z,97.45
2023-04-15T01:06:03.612Z,95.33
2023-04-15T01:08:08.212Z,94.58
2023-04-15T01:10:11.438Z,94.09
2023-04-15T01:12:16.355Z,93.57
2023-04-15T01:14:19.087Z,93.93
2023-04-15T01:16:22.005Z,94.89
2023-04-15T01:18:25.171Z,97.61
2023-04-15T01:20:28.508Z,98.79
2023-04-15T01:22:31.538Z,99.45
2023-04-15T01:24:38.371Z,100.00
2023-04-15T01:26:43.491Z,100.00
2023-04-15T01:28:47.296Z,100.00
2023-04-15T01:30:49.934Z,100.00
2023-04-15T01:32:52.984Z,100.00
2023-04-15T01:34:55.762Z,100.00
2023-04-15T01:36:58.638Z,100.00
2023-04-15T01:39:01.578Z,100.00
2023-04-15T01:41:05.067Z,100.00
2023-04-15T01:43:09.393Z,100.00
2023-04-15T01:45:13.269Z,100.00
2023-04-15T01:47:15.964Z,100.00
2023-04-15T01:49:18.993Z,100.00
2023-04-15T01:51:22.099Z,100.00
2023-04-15T01:53:25.475Z,100.00
2023-04-15T01:55:28.249Z,100.00
2023-04-15T01:57:30.948Z,100.00
2023-04-15T01:59:34.991Z,100.00
2023-04-15T02:01:38.236Z,100.00
2023-04-15T02:03:40.964Z,100.00
2023-04-15T02:05:43.665Z,100.00
2023-04-15T02:07:46.545Z,100.00
2023-04-15T02:09:49.178Z,100.00
2023-04-15T02:11:53.018Z,100.00
2023-04-15T02:13:55.811Z,100.00
2023-04-15T02:16:00.421Z,100.00
2023-04-15T02:18:03.236Z,100.00
2023-04-15T02:20:06.803Z,100.00
2023-04-15T02:22:11.380Z,100.00
2023-04-15T02:24:14.072Z,100.00
2023-04-15T02:26:16.928Z,100.00
2023-04-15T02:28:19.645Z,100.00
2023-04-15T02:30:23.895Z,100.00
2023-04-15T02:32:29.012Z,100.00
2023-04-15T02:34:33.647Z,100.00
2023-04-15T02:36:36.385Z,100.00
2023-04-15T02:38:40.719Z,100.00
2023-04-15T02:40:43.375Z,100.00
2023-04-15T02:42:46.505Z,100.00
2023-04-15T02:44:49.183Z,100.00
2023-04-15T02:46:53.595Z,100.00
2023-04-15T02:48:59.825Z,100.00
2023-04-15T02:51:16.693Z,100.00
2023-04-15T02:53:19.914Z,100.00
2023-04-15T02:55:22.751Z,100.00
2023-04-15T02:57:25.464Z,100.00
2023-04-15T02:59:28.185Z,100.00
2023-04-15T03:01:31.012Z,100.00
2023-04-15T03:03:33.764Z,100.00
2023-04-15T03:05:39.181Z,100.00
2023-04-15T03:07:41.919Z,100.00
2023-04-15T03:09:44.650Z,100.00
2023-04-15T03:11:47.313Z,100.00
2023-04-15T03:13:50.023Z,100.00
2023-04-15T03:15:52.754Z,100.00
2023-04-15T03:17:55.579Z,100.00
2023-04-15T03:19:58.330Z,100.00
2023-04-15T03:22:02.375Z,100.00
2023-04-15T03:24:05.077Z,100.00
2023-04-15T03:26:07.695Z,100.00
2023-04-15T03:28:10.479Z,100.00
2023-04-15T03:30:13.902Z,100.00
2023-04-15T03:32:16.732Z,100.00
2023-04-15T03:34:19.399Z,100.00
2023-04-15T03:36:22.194Z,100.00
2023-04-15T03:38:26.177Z,100.00
2023-04-15T03:40:28.833Z,100.00
2023-04-15T03:42:31.447Z,100.00
2023-04-15T03:44:34.046Z,100.00
2023-04-15T03:46:36.787Z,100.00
2023-04-15T03:48:39.391Z,100.00
2023-04-15T03:50:42.017Z,100.00
2023-04-15T03:52:45.435Z,100.00
2023-04-15T03:54:49.407Z,100.00
2023-04-15T03:56:52.064Z,100.00
2023-04-15T03:58:54.704Z,100.00
2023-04-15T04:00:57.320Z,100.00
2023-04-15T04:03:00.072Z,100.00
2023-04-15T04:05:03.278Z,100.00
2023-04-15T04:07:05.895Z,100.00
2023-04-15T04:09:13.364Z,100.00
2023-04-15T04:11:17.559Z,100.00
2023-04-15T04:13:20.193Z,100.00
2023-04-15T04:15:22.918Z,100.00
2023-04-15T04:17:25.711Z,100.00
2023-04-15T04:19:29.945Z,100.00
2023-04-15T04:21:34.145Z,100.00
2023-04-15T04:23:37.030Z,100.00
2023-04-15T04:25:39.678Z,100.00
2023-04-15T04:27:43.731Z,100.00
2023-04-15T04:29:47.772Z,100.00
2023-04-15T04:31:50.524Z,100.00
2023-04-15T04:33:53.260Z,100.00
2023-04-15T04:35:56.099Z,100.00
2023-04-15T04:37:58.749Z,100.00
2023-04-15T04:40:01.389Z,100.00
2023-04-15T04:42:04.097Z,100.00
2023-04-15T04:44:08.132Z,100.00
2023-04-15T04:46:12.009Z,100.00
2023-04-15T04:48:14.764Z,100.00
2023-04-15T04:50:17.617Z,100.00
2023-04-15T04:52:20.319Z,100.00
2023-04-15T04:54:23.664Z,100.00
2023-04-15T04:56:26.342Z,100.00
2023-04-15T04:58:28.930Z,100.00
2023-04-15T05:00:33.078Z,100.00
2023-04-15T05:02:36.334Z,100.00
2023-04-15T05:04:39.089Z,100.00
2023-04-15T05:06:41.731Z,100.00
2023-04-15T05:08:44.361Z,100.00
2023-04-15T05:10:47.208Z,100.00
2023-04-15T05:12:50.449Z,100.00
2023-04-15T05:14:53.248Z,100.00
2023-04-15T05:16:57.590Z,100.00
2023-04-15T05:19:00.622Z,100.00
2023-04-15T05:21:03.651Z,100.00
2023-04-15T05:23:06.331Z,100.00
2023-04-15T05:25:09.794Z,100.00
2023-04-15T05:27:12.713Z,100.00
2023-04-15T05:29:15.419Z,100.00
2023-04-15T05:31:18.242Z,100.00
2023-04-15T05:33:22.325Z,100.00
2023-04-15T05:35:25.006Z,100.00
2023-04-15T05:37:27.613Z,100.00
2023-04-15T05:39:31.502Z,100.00
2023-04-15T05:41:34.667Z,100.00
2023-04-15T05:43:37.324Z,100.00
2023-04-15T05:45:40.022Z,100.00
2023-04-15T05:47:43.208Z,100.00
2023-04-15T05:49:47.269Z,100.00
2023-04-15T05:51:49.953Z,100.00
2023-04-15T05:53:52.580Z,100.00
2023-04-15T05:55:55.173Z,100.00
2023-04-15T05:57:57.826Z,100.00
2023-04-15T06:00:00.535Z,100.00
2023-04-15T06:02:03.397Z,100.00
2023-04-15T06:04:06.610Z,100.00
2023-04-15T06:06:10.896Z,100.00
2023-04-15T06:08:13.862Z,100.00
2023-04-15T06:10:16.658Z,100.00
2023-04-15T06:12:19.322Z,99.39
2023-04-15T06:14:21.990Z,98.15
2023-04-15T06:16:24.756Z,96.07
2023-04-15T06:18:27.384Z,94.96
2023-04-15T06:20:30.010Z,93.64
2023-04-15T06:22:34.063Z,91.44
2023-04-15T06:24:37.053Z,90.10
2023-04-15T06:26:39.798Z,89.74
2023-04-15T06:28:42.421Z,89.75
2023-04-15T06:30:45.160Z,89.14
2023-04-15T06:32:48.661Z,89.17
2023-04-15T06:34:51.319Z,87.01
2023-04-15T06:36:54.699Z,87.16
2023-04-15T06:38:58.897Z,84.41
2023-04-15T06:41:01.678Z,82.79
2023-04-15T06:43:04.887Z,80.80
2023-04-15T06:45:08.750Z,78.44
2023-04-15T06:47:13.066Z,79.18
2023-04-15T06:49:15.811Z,78.38
2023-04-15T06:51:18.468Z,78.37
2023-04-15T06:53:22.024Z,76.29
2023-04-15T06:55:26.022Z,77.54
2023-04-15T06:57:29.623Z,81.91
2023-04-15T06:59:32.779Z,78.69
2023-04-15T07:01:35.577Z,76.65
2023-04-15T07:03:38.743Z,77.68
2023-04-15T07:05:41.458Z,73.29
2023-04-15T07:07:45.282Z,68.77
2023-04-15T07:09:48.215Z,69.61
2023-04-15T07:11:52.549Z,64.08
2023-04-15T07:13:55.245Z,66.42
2023-04-15T07:15:57.942Z,68.64
2023-04-15T07:18:00.882Z,66.79
2023-04-15T07:20:04.473Z,63.90
2023-04-15T07:22:07.685Z,66.38
2023-04-15T07:24:10.552Z,62.31
2023-04-15T07:26:13.918Z,65.26
2023-04-15T07:28:17.947Z,66.56
2023-04-15T07:30:20.705Z,66.27
2023-04-15T07:32:23.454Z,67.55
2023-04-15T07:34:26.090Z,67.28
2023-04-15T07:36:29.315Z,68.72
2023-04-15T07:38:31.953Z,67.58
2023-04-15T07:40:34.634Z,66.10
2023-04-15T07:42:38.986Z,64.07
2023-04-15T07:44:44.837Z,68.91
2023-04-15T07:46:47.474Z,67.90
2023-04-15T07:48:50.828Z,71.86
2023-04-15T07:50:53.650Z,71.50
2023-04-15T07:52:57.255Z,69.74
2023-04-15T07:54:59.947Z,70.02
2023-04-15T07:57:03.128Z,72.99
2023-04-15T07:59:06.476Z,70.65
2023-04-15T08:01:10.640Z,73.40
2023-04-15T08:03:13.457Z,71.25
2023-04-15T08:05:16.676Z,71.30
2023-04-15T08:07:19.343Z,69.62
2023-04-15T08:09:21.984Z,72.12
2023-04-15T08:11:25.024Z,71.02
2023-04-15T08:13:28.068Z,70.21
2023-04-15T08:15:32.866Z,69.09
2023-04-15T08:17:36.903Z,67.89
2023-04-15T08:19:39.640Z,66.16
2023-04-15T08:21:42.333Z,68.58
2023-04-15T08:23:45.825Z,70.62
2023-04-15T08:25:48.472Z,67.37
2023-04-15T08:27:52.326Z,65.55
2023-04-15T08:29:55.030Z,65.32
2023-04-15T08:31:57.704Z,62.15
2023-04-15T08:34:01.868Z,59.47
2023-04-15T08:36:04.614Z,63.72
2023-04-15T08:38:07.212Z,63.19
2023-04-15T08:40:12.719Z,65.97
2023-04-15T08:42:18.562Z,64.83
2023-04-15T08:44:24.565Z,59.07
2023-04-15T08:46:27.642Z,56.85
2023-04-15T08:48:33.254Z,56.48
2023-04-15T08:50:37.852Z,55.71
2023-04-15T08:52:41.129Z,51.79
2023-04-15T08:54:43.851Z,47.76
2023-04-15T08:56:47.058Z,46.57
2023-04-15T08:58:49.884Z,45.25
2023-04-15T09:00:52.764Z,45.78
2023-04-15T09:02:56.868Z,50.14
2023-04-15T09:04:59.579Z,45.14
2023-04-15T09:07:03.566Z,44.22
2023-04-15T09:09:06.380Z,46.33
2023-04-15T09:11:09.030Z,45.29
2023-04-15T09:13:11.912Z,43.88
2023-04-15T09:15:16.325Z,45.14
2023-04-15T09:17:20.744Z,43.91
2023-04-15T09:19:24.779Z,47.15
2023-04-15T09:21:27.773Z,45.31
2023-04-15T09:23:31.744Z,44.91
2023-04-15T09:25:35.067Z,47.33
2023-04-15T09:27:38.364Z,46.03
2023-04-15T09:29:42.659Z,47.06
2023-04-15T09:31:45.608Z,48.39
2023-04-15T09:33:56.779Z,48.45
2023-04-15T09:36:01.516Z,48.56
2023-04-15T09:38:05.843Z,48.98
2023-04-15T09:40:11.141Z,50.34
2023-04-15T09:42:13.984Z,48.47
2023-04-15T09:44:23.989Z,46.96
2023-04-15T09:46:42.017Z,48.02
2023-04-15T09:48:44.869Z,48.94
2023-04-15T09:50:48.879Z,47.79
2023-04-15T09:52:51.566Z,48.75
2023-04-15T09:54:55.872Z,49.11
2023-04-15T09:57:06.283Z,46.94
2023-04-15T09:59:09.439Z,49.54
2023-04-15T10:01:12.239Z,51.09
2023-04-15T10:03:19.932Z,51.75
2023-04-15T10:05:23.441Z,52.61
2023-04-15T10:07:26.902Z,52.34
2023-04-15T10:09:30.300Z,52.52
2023-04-15T10:11:34.277Z,51.37
2023-04-15T10:13:39.960Z,53.58
2023-04-15T10:15:46.150Z,53.64
2023-04-15T10:17:51.858Z,53.19
2023-04-15T10:19:55.830Z,53.44
2023-04-15T10:21:59.391Z,53.63
2023-04-15T10:24:04.237Z,53.73
2023-04-15T10:26:07.711Z,54.63
2023-04-15T10:28:11.039Z,52.80
2023-04-15T10:30:16.301Z,51.96
2023-04-15T10:32:21.721Z,52.43
2023-04-15T10:34:25.977Z,53.42
2023-04-15T10:36:28.759Z,52.94
2023-04-15T10:38:36.371Z,52.39
2023-04-15T10:40:40.542Z,48.78
2023-04-15T10:42:43.238Z,49.51
2023-04-15T10:44:47.120Z,49.67
2023-04-15T10:46:52.858Z,50.02
2023-04-15T10:48:55.603Z,49.57
2023-04-15T10:50:58.837Z,49.54
2023-04-15T10:53:04.163Z,50.28
2023-04-15T10:55:15.720Z,49.79
2023-04-15T10:57:23.482Z,50.21
2023-04-15T10:59:26.117Z,48.85
2023-04-15T11:01:54.934Z,50.53
2023-04-15T11:03:57.944Z,51.60
2023-04-15T11:06:01.768Z,50.60
2023-04-15T11:08:04.585Z,50.85
2023-04-15T11:10:52.949Z,50.74
2023-04-15T11:12:58.801Z,51.04
2023-04-15T11:15:01.666Z,52.11
2023-04-15T11:17:05.694Z,51.93
2023-04-15T11:19:08.396Z,52.09
2023-04-15T11:21:11.164Z,51.23
2023-04-15T11:23:15.557Z,50.61
2023-04-15T11:25:26.018Z,50.95
2023-04-15T11:27:28.756Z,51.40
2023-04-15T11:29:32.489Z,50.58
2023-04-15T11:31:35.271Z,51.68
2023-04-15T11:33:40.526Z,50.67
2023-04-15T11:35:44.087Z,50.95
2023-04-15T11:37:48.336Z,51.87
2023-04-15T11:39:51.037Z,51.61
2023-04-15T11:41:53.864Z,52.07
2023-04-15T11:43:56.601Z,49.83
2023-04-15T11:46:01.581Z,49.47
2023-04-15T11:48:08.675Z,48.57
2023-04-15T11:50:23.835Z,46.84
2023-04-15T11:52:26.504Z,48.59
2023-04-15T11:54:29.305Z,49.96
2023-04-15T11:56:31.985Z,51.37
2023-04-15T11:58:37.293Z,53.44
2023-04-15T12:00:41.215Z,56.04
2023-04-15T12:02:44.363Z,58.04
2023-04-15T12:04:47.292Z,56.92
2023-04-15T12:06:51.436Z,57.27
2023-04-15T12:09:01.353Z,57.90
2023-04-15T12:11:04.044Z,55.65
2023-04-15T12:13:09.189Z,53.47
2023-04-15T12:15:11.895Z,54.21
2023-04-15T12:17:14.553Z,53.03
2023-04-15T12:19:18.972Z,53.50
2023-04-15T12:21:22.021Z,53.05
2023-04-15T12:23:26.036Z,52.51
2023-04-15T12:25:35.892Z,54.41
2023-04-15T12:27:38.635Z,55.96
2023-04-15T12:29:43.091Z,56.26
2023-04-15T12:31:51.613Z,55.80
2023-04-15T12:33:56.616Z,56.22
2023-04-15T12:35:59.344Z,57.09
2023-04-15T12:38:02.021Z,59.22
2023-04-15T12:40:09.800Z,61.63
2023-04-15T12:42:13.546Z,64.58
2023-04-15T12:44:16.179Z,67.14
2023-04-15T12:46:18.976Z,70.12
2023-04-15T12:48:21.688Z,72.74
2023-04-15T12:50:24.321Z,76.71
2023-04-15T12:52:27.058Z,81.29
2023-04-15T12:54:30.266Z,83.32
2023-04-15T12:56:34.281Z,85.50
2023-04-15T12:58:37.217Z,93.97
2023-04-15T13:00:40.294Z,97.18
2023-04-15T13:02:45.047Z,98.90
2023-04-15T13:04:47.913Z,98.65
2023-04-15T13:06:50.723Z,99.35
2023-04-15T13:08:58.280Z,95.88
2023-04-15T13:11:01.210Z,95.36
2023-04-15T13:13:05.775Z,89.15
2023-04-15T13:15:10.765Z,86.24
2023-04-15T13:17:13.381Z,85.51
2023-04-15T13:19:16.077Z,84.15
2023-04-15T13:21:20.078Z,81.98
2023-04-15T13:23:22.852Z,80.58
2023-04-15T13:25:25.995Z,78.45
2023-04-15T13:27:28.678Z,78.52
2023-04-15T13:29:32.683Z,74.94
2023-04-15T13:31:35.551Z,74.16
2023-04-15T13:33:38.295Z,72.76
2023-04-15T13:35:41.601Z,71.84
2023-04-15T13:37:44.226Z,70.91
2023-04-15T13:39:46.822Z,70.15
2023-04-15T13:41:49.520Z,68.26
2023-04-15T13:43:52.217Z,67.09
2023-04-15T13:45:56.576Z,66.95
2023-04-15T13:47:59.406Z,64.79
2023-04-15T13:50:02.093Z,61.12
2023-04-15T13:52:04.747Z,60.33
2023-04-15T13:54:07.578Z,60.42
2023-04-15T13:56:10.500Z,61.20
2023-04-15T13:58:13.100Z,60.18
2023-04-15T14:00:16.672Z,58.14
2023-04-15T14:02:22.978Z,58.34
2023-04-15T14:04:26.131Z,57.80
2023-04-15T14:06:29.436Z,57.09
2023-04-15T14:08:32.300Z,56.56
2023-04-15T14:10:34.923Z,55.50
2023-04-15T14:12:37.543Z,54.66
2023-04-15T14:14:40.240Z,54.12
2023-04-15T14:16:43.051Z,54.97
2023-04-15T14:18:47.244Z,52.75
2023-04-15T14:20:49.854Z,51.60
2023-04-15T14:22:52.499Z,50.97
2023-04-15T14:24:55.659Z,51.83
2023-04-15T14:26:59.218Z,51.96
2023-04-15T14:29:02.021Z,52.61
2023-04-15T14:31:04.859Z,51.01
2023-04-15T14:33:07.465Z,51.00
2023-04-15T14:35:11.719Z,50.07
2023-04-15T14:37:14.334Z,50.44
2023-04-15T14:39:16.970Z,50.52
2023-04-15T14:41:19.695Z,50.49
2023-04-15T14:43:22.432Z,51.34
2023-04-15T14:45:25.238Z,52.11
2023-04-15T14:47:27.986Z,52.25
2023-04-15T14:49:30.927Z,52.51
2023-04-15T14:51:35.156Z,52.76
2023-04-15T14:53:37.831Z,52.96
2023-04-15T14:55:40.514Z,53.33
2023-04-15T14:57:43.920Z,54.54
2023-04-15T14:59:46.665Z,53.82
2023-04-15T15:01:49.483Z,55.36
2023-04-15T15:03:52.368Z,55.38
2023-04-15T15:05:55.239Z,55.47
2023-04-15T15:07:59.361Z,56.57
2023-04-15T15:10:02.069Z,57.21
2023-04-15T15:12:04.989Z,58.34
2023-04-15T15:14:07.640Z,58.45
2023-04-15T15:16:12.481Z,58.57
2023-04-15T15:18:16.775Z,60.20
2023-04-15T15:20:19.417Z,60.33
2023-04-15T15:22:22.113Z,61.19
2023-04-15T15:24:26.123Z,62.20
2023-04-15T15:26:29.097Z,62.78
2023-04-15T15:28:31.786Z,63.13
2023-04-15T15:30:34.531Z,63.38
2023-04-15T15:32:37.245Z,63.82
2023-04-15T15:34:40.000Z,64.00
2023-04-15T15:36:42.839Z,63.92
2023-04-15T15:38:45.691Z,64.47
2023-04-15T15:40:49.729Z,64.94
2023-04-15T15:42:52.448Z,64.98
2023-04-15T15:44:55.070Z,65.33
2023-04-15T15:46:57.825Z,66.92
2023-04-15T15:49:00.759Z,67.76
2023-04-15T15:51:04.174Z,69.38
2023-04-15T15:53:06.847Z,69.61
2023-04-15T15:55:10.036Z,69.71
2023-04-15T15:57:14.099Z,70.06
2023-04-15T15:59:16.797Z,71.10
2023-04-15T16:01:19.744Z,67.93
2023-04-15T16:03:23.427Z,69.89
2023-04-15T16:05:26.199Z,69.47
2023-04-15T16:07:28.951Z,67.86
2023-04-15T16:09:31.607Z,71.55
2023-04-15T16:11:34.282Z,69.81
2023-04-15T16:13:38.362Z,68.16
2023-04-15T16:15:41.155Z,68.83
2023-04-15T16:17:43.877Z,70.80
2023-04-15T16:19:57.005Z,72.01
2023-04-15T16:22:03.503Z,75.84
2023-04-15T16:24:06.469Z,78.16
2023-04-15T16:26:09.133Z,80.26
2023-04-15T16:28:23.106Z,82.36
2023-04-15T16:30:30.375Z,84.73
2023-04-15T16:32:33.098Z,87.73
2023-04-15T16:34:38.916Z,89.57
2023-04-15T16:36:41.529Z,92.91
2023-04-15T16:38:45.249Z,93.65
2023-04-15T16:40:47.932Z,95.65
2023-04-15T16:42:50.642Z,98.42
2023-04-15T16:44:53.284Z,100.00
2023-04-15T16:46:57.401Z,100.00
2023-04-15T16:49:00.341Z,100.00
2023-04-15T16:51:03.179Z,100.00
2023-04-15T16:53:05.971Z,100.00
2023-04-15T16:55:08.964Z,100.00
2023-04-15T16:57:11.620Z,100.00
2023-04-15T16:59:14.282Z,100.00
2023-04-15T17:01:17.179Z,100.00
2023-04-15T17:03:21.501Z,100.00
2023-04-15T17:05:24.399Z,100.00
2023-04-15T17:07:27.042Z,100.00
2023-04-15T17:09:29.681Z,100.00
2023-04-15T17:11:32.396Z,100.00
2023-04-15T17:13:35.199Z,100.00
2023-04-15T17:15:37.937Z,100.00
2023-04-15T17:17:40.635Z,100.00
2023-04-15T17:19:44.722Z,100.00
2023-04-15T17:21:47.392Z,100.00
2023-04-15T17:23:50.083Z,100.00
2023-04-15T17:25:52.740Z,100.00
2023-04-15T17:27:55.440Z,100.00
2023-04-15T17:29:58.456Z,100.00
2023-04-15T17:32:01.487Z,100.00
2023-04-15T17:34:08.463Z,100.00
2023-04-15T17:36:13.764Z,100.00
2023-04-15T17:38:16.425Z,100.00
2023-04-15T17:40:19.210Z,100.00
2023-04-15T17:42:22.954Z,100.00
2023-04-15T17:44:25.652Z,100.00
2023-04-15T17:46:28.443Z,100.00
2023-04-15T17:48:31.140Z,100.00
2023-04-15T17:50:33.783Z,100.00
2023-04-15T17:52:37.820Z,100.00
2023-04-15T17:54:40.536Z,100.00
2023-04-15T17:56:43.216Z,100.00
2023-04-15T17:58:45.981Z,100.00
2023-04-15T18:00:48.620Z,100.00
2023-04-15T18:02:51.491Z,100.00
2023-04-15T18:04:54.435Z,100.00
2023-04-15T18:06:57.091Z,100.00
2023-04-15T18:09:01.167Z,100.00
2023-04-15T18:11:03.839Z,100.00
2023-04-15T18:13:06.602Z,100.00
2023-04-15T18:15:10.505Z,100.00
2023-04-15T18:17:14.427Z,100.00
2023-04-15T18:19:17.923Z,100.00
2023-04-15T18:21:20.634Z,100.00
2023-04-15T18:23:23.280Z,100.00
2023-04-15T18:25:27.511Z,100.00
2023-04-15T18:27:30.292Z,100.00
2023-04-15T18:29:32.919Z,100.00
2023-04-15T18:31:35.804Z,100.00
2023-04-15T18:33:40.230Z,100.00
2023-04-15T18:35:43.087Z,100.00
2023-04-15T18:37:45.809Z,100.00
2023-04-15T18:39:48.578Z,100.00
2023-04-15T18:41:52.637Z,100.00
2023-04-15T18:43:56.042Z,100.00
2023-04-15T18:45:58.895Z,100.00
2023-04-15T18:48:01.770Z,100.00
2023-04-15T18:50:04.636Z,100.00
2023-04-15T18:52:07.291Z,100.00
2023-04-15T18:54:09.915Z,100.00
2023-04-15T18:56:12.701Z,100.00
2023-04-15T18:58:16.823Z,100.00
2023-04-15T19:00:19.588Z,100.00
2023-04-15T19:02:22.317Z,100.00
2023-04-15T19:04:25.148Z,100.00
2023-04-15T19:06:28.657Z,100.00
2023-04-15T19:08:32.069Z,100.00
2023-04-15T19:10:35.403Z,100.00
2023-04-15T19:12:38.047Z,100.00
2023-04-15T19:14:42.388Z,100.00
2023-04-15T19:16:45.036Z,100.00
2023-04-15T19:18:47.765Z,100.00
2023-04-15T19:20:52.176Z,100.00
2023-04-15T19:22:55.916Z,100.00
2023-04-15T19:24:58.777Z,100.00
2023-04-15T19:27:01.497Z,100.00
2023-04-15T19:29:04.488Z,100.00
2023-04-15T19:31:09.006Z,100.00
2023-04-15T19:33:11.729Z,100.00
2023-04-15T19:35:14.398Z,100.00
2023-04-15T19:37:17.158Z,100.00
2023-04-15T19:39:20.129Z,100.00
2023-04-15T19:41:22.837Z,100.00
2023-04-15T19:43:26.022Z,100.00
2023-04-15T19:45:28.758Z,100.00
2023-04-15T19:47:34.157Z,100.00
2023-04-15T19:49:36.966Z,100.00
2023-04-15T19:51:39.724Z,100.00
2023-04-15T19:53:42.354Z,100.00
2023-04-15T19:55:45.043Z,100.00
2023-04-15T19:57:47.751Z,100.00
2023-04-15T19:59:50.488Z,100.00
2023-04-15T20:01:53.539Z,100.00
2023-04-15T20:03:57.833Z,100.00
2023-04-15T20:06:00.633Z,100.00
2023-04-15T20:08:03.916Z,100.00
2023-04-15T20:10:09.600Z,100.00
2023-04-15T20:12:51.625Z,100.00
2023-04-15T20:14:38.036Z,100.00
2023-04-15T20:16:40.667Z,100.00
2023-04-15T20:18:43.358Z,100.00
2023-04-15T20:20:48.343Z,100.00
2023-04-15T20:22:52.698Z,100.00
2023-04-15T20:24:55.487Z,100.00
2023-04-15T20:26:58.484Z,100.00
2023-04-15T20:29:01.144Z,100.00
2023-04-15T20:31:04.019Z,100.00
2023-04-15T20:33:07.954Z,100.00
2023-04-15T20:35:11.180Z,100.00
2023-04-15T20:37:15.153Z,100.00
2023-04-15T20:39:17.798Z,100.00
2023-04-15T20:41:21.648Z,100.00
2023-04-15T20:43:25.665Z,100.00
2023-04-15T20:45:28.387Z,100.00
2023-04-15T20:47:31.304Z,100.00
2023-04-15T20:49:35.381Z,100.00
2023-04-15T20:51:38.186Z,100.00
2023-04-15T20:53:42.518Z,100.00
2023-04-15T20:55:45.560Z,100.00
2023-04-15T20:57:48.520Z,100.00
2023-04-15T20:59:51.263Z,100.00
2023-04-15T21:01:54.166Z,100.00
2023-04-15T21:03:56.899Z,100.00
2023-04-15T21:05:59.560Z,100.00
2023-04-15T21:08:02.229Z,100.00
2023-04-15T21:10:07.181Z,100.00
2023-04-15T21:12:10.900Z,100.00
2023-04-15T21:14:13.581Z,100.00
2023-04-15T21:16:16.289Z,100.00
2023-04-15T21:18:19.117Z,100.00
2023-04-15T21:20:21.833Z,100.00
2023-04-15T21:22:24.459Z,100.00
2023-04-15T21:24:27.327Z,100.00
2023-04-15T21:26:31.321Z,100.00
2023-04-15T21:28:33.944Z,100.00
2023-04-15T21:30:36.634Z,100.00
2023-04-15T21:32:39.392Z,100.00
2023-04-15T21:34:42.087Z,100.00
2023-04-15T21:36:44.773Z,100.00
2023-04-15T21:38:47.447Z,100.00
2023-04-15T21:40:50.717Z,100.00
2023-04-15T21:42:54.737Z,100.00
2023-04-15T21:44:57.438Z,100.00
2023-04-15T21:47:00.143Z,100.00
2023-04-15T21:49:03.465Z,100.00
2023-04-15T21:51:06.459Z,100.00
2023-04-15T21:53:09.740Z,100.00
2023-04-15T21:55:12.416Z,100.00
2023-04-15T21:57:15.292Z,100.00
2023-04-15T21:59:19.381Z,100.00
2023-04-15T22:01:22.097Z,100.00
2023-04-15T22:03:24.944Z,100.00
2023-04-15T22:05:27.939Z,100.00
2023-04-15T22:07:30.757Z,100.00
2023-04-15T22:09:33.659Z,100.00
2023-04-15T22:11:36.429Z,100.00
2023-04-15T22:13:39.120Z,100.00
2023-04-15T22:15:43.217Z,100.00
2023-04-15T22:17:46.730Z,100.00
2023-04-15T22:19:49.385Z,100.00
2023-04-15T22:21:52.119Z,100.00
2023-04-15T22:24:32.521Z,100.00
2023-04-15T22:26:17.684Z,100.00
2023-04-15T22:28:20.362Z,100.00
2023-04-15T22:30:23.196Z,100.00
2023-04-15T22:32:27.304Z,100.00
2023-04-15T22:34:30.128Z,100.00
2023-04-15T22:36:32.872Z,100.00
2023-04-15T22:38:35.620Z,100.00
2023-04-15T22:40:38.375Z,100.00
2023-04-15T22:42:41.027Z,100.00
2023-04-15T22:44:43.601Z,100.00
2023-04-15T22:46:46.244Z,100.00
2023-04-15T22:48:50.269Z,100.00
2023-04-15T22:50:53.046Z,100.00
2023-04-15T22:52:55.799Z,100.00
2023-04-15T22:54:58.535Z,100.00
2023-04-15T22:57:01.245Z,100.00
2023-04-15T22:59:03.991Z,100.00
2023-04-15T23:01:06.698Z,100.00
2023-04-15T23:03:09.523Z,100.00
2023-04-15T23:05:13.765Z,100.00
2023-04-15T23:07:16.395Z,100.00
2023-04-15T23:09:19.124Z,100.00
2023-04-15T23:11:21.918Z,100.00
2023-04-15T23:13:24.601Z,100.00
2023-04-15T23:15:27.227Z,100.00
2023-04-15T23:17:29.949Z,100.00
2023-04-15T23:19:32.969Z,100.00
2023-04-15T23:21:36.992Z,100.00
2023-04-15T23:23:39.702Z,100.00
2023-04-15T23:25:42.359Z,100.00
2023-04-15T23:27:45.012Z,100.00
2023-04-15T23:29:47.640Z,100.00
2023-04-15T23:31:50.304Z,100.00
2023-04-15T23:33:53.032Z,100.00
2023-04-15T23:35:55.898Z,100.00
2023-04-15T23:37:59.853Z,100.00
2023-04-15T23:40:02.556Z,100.00
2023-04-15T23:42:05.311Z,100.00
2023-04-15T23:44:08.861Z,100.00
2023-04-15T23:46:12.481Z,100.00
2023-04-15T23:48:15.098Z,100.00
2023-04-15T23:50:17.751Z,100.00
2023-04-15T23:52:20.464Z,100.00
2023-04-15T23:54:24.462Z,100.00
2023-04-15T23:56:27.174Z,100.00
2023-04-15T23:58:29.890Z,100.00
